Ossian, Indiana
Current Conditions -  °F | °C
As of 6:54 AM on Friday 24 Oct 2014 (Local Time) from KFWA Reporting Station
Few Clouds Few Clouds  
Wind Chill: 34°   Ceiling: Unl
Heat Index: 38°   Visibility: 10mi
Dew Point: 36°   Wind: 5mph
Humidity: 93%   Direction: 220°SW
Pressure: 30.1"   Gusts: NA
Location:  40.88°N, 85.17°W
Report Text: KFWA 241054Z 22004KT 10SM FEW040 FEW070 FEW220 03/02 A3010 RMK AO2 SLP197 T00330022
Loading
Personal Weather Stations






























Interactive Weather Map
Tropical Storm Tracking
New forecast layout! Learn more

10-Day Weather Forecast

Advertisements
Track Severe Weather on mobile